Time;durP1;ratioP1;P1;durP2;ratioP2;P2;SDS_P1;SDS_P2;PMS_P1;PMS_P2;Temp;Humidity;BMP_temperature;BMP_pressure;BME280_temperature;BME280_humidity;BME280_pressure;Samples;Min_cycle;Max_cycle;Signal;HPM_P1;HPM_P2
2021/08/10 00:01:56;;;;;;;11.77;3.75;;;15.40;68.30;;;;;;4898819;29;20118;-80
2021/08/10 00:07:44;;;;;;;7.78;3.30;;;15.60;68.40;;;;;;4898658;29;20051;-80
2021/08/10 00:13:33;;;;;;;7.75;3.05;;;15.50;68.70;;;;;;4898740;29;20047;-80
2021/08/10 00:19:21;;;;;;;7.82;3.67;;;15.60;71.60;;;;;;4898692;29;20032;-80
2021/08/10 00:25:09;;;;;;;8.25;3.50;;;15.40;77.90;;;;;;4898414;29;20499;-80
2021/08/10 00:30:58;;;;;;;7.97;3.92;;;15.10;69.20;;;;;;4898591;29;20040;-80
2021/08/10 00:40:43;;;;;;;10.88;4.95;;;15.00;69.40;;;;;;4898578;29;20044;-80
2021/08/10 00:46:32;;;;;;;10.80;5.93;;;14.50;69.50;;;;;;4898559;29;20060;-80
2021/08/10 00:52:21;;;;;;;10.52;6.45;;;14.80;70.80;;;;;;4898394;29;20084;-80
2021/08/10 00:58:10;;;;;;;12.70;6.10;;;14.80;71.00;;;;;;4901772;29;20080;-80
2021/08/10 01:04:00;;;;;;;10.63;5.15;;;14.60;69.50;;;;;;4901916;29;20069;-80
2021/08/10 01:09:57;;;;;;;9.48;5.18;;;14.60;70.20;;;;;;4901760;29;20051;-80
2021/08/10 01:16:07;;;;;;;10.27;5.15;;;14.50;70.50;;;;;;4901676;29;20032;-80
2021/08/10 01:21:58;;;;;;;9.85;4.78;;;14.40;70.50;;;;;;4901512;29;20031;-80
2021/08/10 01:28:13;;;;;;;9.85;5.28;;;14.30;70.60;;;;;;4901152;29;20553;-80
2021/08/10 01:34:26;;;;;;;10.40;4.88;;;14.30;70.90;;;;;;4901137;29;20031;-80
2021/08/10 01:44:16;;;;;;;10.13;4.55;;;14.20;71.10;;;;;;4901019;29;20433;-80
2021/08/10 01:50:07;;;;;;;8.88;4.70;;;14.10;71.10;;;;;;4901064;29;20055;-79
2021/08/10 01:55:58;;;;;;;10.68;5.38;;;14.00;71.60;;;;;;4900980;29;20084;-79
2021/08/10 02:01:48;;;;;;;8.52;4.63;;;14.00;71.80;;;;;;4900912;29;20052;-79
2021/08/10 02:07:38;;;;;;;13.95;5.78;;;14.00;71.90;;;;;;4900184;29;20167;-80
2021/08/10 02:13:27;;;;;;;9.55;4.32;;;13.90;72.00;;;;;;4900419;29;20076;-80
2021/08/10 02:19:17;;;;;;;9.05;4.28;;;13.90;72.00;;;;;;4900409;29;20068;-80
2021/08/10 02:25:11;;;;;;;11.32;4.47;;;13.80;72.20;;;;;;4900520;29;20048;-79
2021/08/10 02:31:02;;;;;;;10.00;4.38;;;13.80;72.50;;;;;;4900274;29;20028;-80
2021/08/10 02:36:56;;;;;;;10.77;4.03;;;13.80;72.70;;;;;;4900245;29;20035;-80
2021/08/10 02:46:45;;;;;;;9.25;4.13;;;13.80;73.20;;;;;;4900079;29;20042;-80
2021/08/10 02:52:32;;;;;;;9.65;5.10;;;13.90;73.10;;;;;;4899875;29;20377;-80
2021/08/10 02:58:32;;;;;;;9.75;5.05;;;13.80;73.10;;;;;;4899635;29;20115;-80
2021/08/10 03:04:23;;;;;;;10.15;4.97;;;13.80;73.10;;;;;;4899721;29;20500;-80
2021/08/10 03:10:14;;;;;;;11.63;4.97;;;13.70;73.20;;;;;;4899392;29;20139;-80
2021/08/10 03:16:06;;;;;;;12.10;5.53;;;13.70;73.40;;;;;;4899529;29;20072;-80
2021/08/10 03:21:57;;;;;;;9.27;4.45;;;13.80;74.40;;;;;;4899192;29;20430;-80
2021/08/10 03:27:46;;;;;;;11.27;5.25;;;13.90;74.50;;;;;;4899223;29;20056;-80
2021/08/10 03:33:35;;;;;;;10.02;5.60;;;14.00;74.40;;;;;;4899010;29;20035;-80
2021/08/10 03:39:24;;;;;;;10.23;6.03;;;14.10;74.30;;;;;;4899100;29;20031;-80
2021/08/10 03:49:20;;;;;;;10.23;6.05;;;14.20;74.60;;;;;;4898706;29;20089;-79
2021/08/10 03:55:09;;;;;;;14.82;7.28;;;14.20;74.60;;;;;;4898929;29;20076;-80
2021/08/10 04:01:00;;;;;;;14.43;7.57;;;14.30;74.60;;;;;;4898973;29;20070;-80
2021/08/10 04:06:53;;;;;;;11.20;6.45;;;14.30;74.50;;;;;;4898695;29;20398;-82
2021/08/10 04:12:47;;;;;;;11.07;5.70;;;14.20;74.30;;;;;;4900847;29;20039;-82
2021/08/10 04:18:37;;;;;;;11.70;7.10;;;14.20;74.70;;;;;;4915082;29;20036;-82
2021/08/10 04:24:27;;;;;;;10.10;6.10;;;14.30;75.10;;;;;;4899287;29;20044;-82
2021/08/10 04:30:15;;;;;;;10.98;6.72;;;14.40;75.00;;;;;;4901040;29;20413;-82
2021/08/10 04:36:04;;;;;;;9.25;4.28;;;14.40;74.90;;;;;;4902343;29;20084;-82
2021/08/10 04:41:54;;;;;;;10.48;5.32;;;14.50;75.30;;;;;;4902296;29;20075;-82
2021/08/10 04:51:45;;;;;;;9.80;3.95;;;14.80;76.00;;;;;;4902095;29;20072;-82
2021/08/10 04:57:34;;;;;;;9.00;4.10;;;15.00;76.00;;;;;;4901991;29;20039;-82
2021/08/10 05:03:23;;;;;;;7.18;3.20;;;15.10;75.60;;;;;;4901911;29;20039;-82
2021/08/10 05:09:11;;;;;;;8.60;4.20;;;15.30;75.60;;;;;;4901396;29;20146;-82
2021/08/10 05:15:02;;;;;;;7.43;3.60;;;15.60;75.80;;;;;;4901756;29;20132;-81
2021/08/10 05:20:50;;;;;;;7.18;3.50;;;15.90;75.70;;;;;;4901423;29;20446;-84
2021/08/10 05:26:40;;;;;;;7.68;4.00;;;16.10;75.40;;;;;;4901364;29;20397;-84
2021/08/10 05:32:28;;;;;;;7.97;3.20;;;16.30;75.30;;;;;;4901319;29;20059;-84
2021/08/10 05:38:16;;;;;;;7.43;3.30;;;16.60;75.30;;;;;;4901462;29;20085;-84
2021/08/10 05:44:05;;;;;;;9.75;3.00;;;16.60;74.40;;;;;;4901276;29;20504;-84
2021/08/10 05:53:48;;;;;;;8.68;3.78;;;16.70;74.70;;;;;;4901237;29;20067;-84
2021/08/10 05:59:35;;;;;;;8.57;3.72;;;17.00;75.30;;;;;;4900914;29;20043;-84
2021/08/10 06:05:24;;;;;;;8.63;3.50;;;17.30;75.10;;;;;;4900972;29;20032;-80
2021/08/10 06:11:12;;;;;;;8.48;3.40;;;17.80;75.60;;;;;;4900718;29;20044;-80
2021/08/10 06:17:01;;;;;;;8.57;3.35;;;18.30;75.30;;;;;;4900600;29;20589;-84
2021/08/10 06:22:50;;;;;;;6.50;2.65;;;18.60;74.10;;;;;;4901318;29;20107;-84
2021/08/10 06:28:39;;;;;;;5.82;2.60;;;18.80;74.50;;;;;;4900044;29;20135;-81
2021/08/10 06:34:28;;;;;;;6.05;2.70;;;19.30;74.30;;;;;;4900016;29;20068;-83
2021/08/10 06:40:16;;;;;;;5.47;2.60;;;19.60;73.60;;;;;;4900263;29;20168;-82
2021/08/10 06:46:05;;;;;;;6.07;2.60;;;19.90;73.40;;;;;;4899851;29;20035;-82
2021/08/10 06:55:47;;;;;;;5.43;2.33;;;20.60;72.80;;;;;;4899991;29;20039;-83
2021/08/10 07:01:35;;;;;;;5.03;2.63;;;21.10;72.90;;;;;;4899801;29;20539;-85
2021/08/10 07:07:24;;;;;;;4.88;2.17;;;21.50;71.90;;;;;;4899412;29;20076;-82
2021/08/10 07:13:13;;;;;;;6.47;3.03;;;21.90;71.20;;;;;;4899620;29;20035;-85
2021/08/10 07:19:00;;;;;;;6.90;2.60;;;22.30;70.80;;;;;;4899766;29;20043;-86
2021/08/10 07:24:49;;;;;;;5.68;2.55;;;22.60;69.80;;;;;;4899767;29;20040;-89
2021/08/10 07:30:36;;;;;;;7.68;2.55;;;22.70;68.70;;;;;;4899511;29;20084;-87
2021/08/10 07:36:24;;;;;;;6.07;2.35;;;22.50;68.20;;;;;;4899528;29;20393;-86
2021/08/10 07:42:13;;;;;;;6.07;2.30;;;22.60;68.00;;;;;;4899099;29;20373;-84
2021/08/10 07:48:05;;;;;;;4.53;2.30;;;22.70;67.80;;;;;;4898946;29;20059;-81
2021/08/10 07:57:49;;;;;;;5.40;2.20;;;23.00;66.80;;;;;;4899248;29;20058;-85
2021/08/10 08:03:37;;;;;;;4.05;2.00;;;23.70;66.60;;;;;;4898815;29;20036;-86
2021/08/10 08:09:26;;;;;;;5.95;2.30;;;23.80;64.30;;;;;;4898526;29;20085;-86
2021/08/10 08:15:15;;;;;;;5.38;2.00;;;24.00;64.60;;;;;;4898490;29;20092;-86
2021/08/10 08:21:03;;;;;;;8.45;2.53;;;24.30;63.30;;;;;;4898535;29;20027;-86
2021/08/10 08:26:53;;;;;;;3.67;2.00;;;24.20;62.10;;;;;;4898443;29;20059;-86
2021/08/10 08:32:42;;;;;;;7.13;2.50;;;24.10;61.30;;;;;;4898356;29;20508;-86
2021/08/10 08:38:31;;;;;;;4.95;2.05;;;24.30;62.20;;;;;;4898537;29;20040;-86
2021/08/10 08:44:20;;;;;;;3.97;2.20;;;24.80;61.10;;;;;;4898334;29;20608;-86
2021/08/10 08:50:10;;;;;;;3.15;1.90;;;24.80;58.70;;;;;;4898590;29;20056;-86
2021/08/10 08:59:53;;;;;;;5.85;1.90;;;24.60;59.10;;;;;;4898524;29;20556;-86
2021/08/10 09:05:47;;;;;;;4.40;2.25;;;24.70;58.60;;;;;;4898121;29;20085;-85
2021/08/10 09:11:36;;;;;;;4.03;1.92;;;24.70;58.30;;;;;;4906755;29;20048;-92
2021/08/10 09:17:25;;;;;;;5.68;2.22;;;24.80;57.90;;;;;;4919847;29;20031;-85
2021/08/10 09:23:14;;;;;;;3.25;1.55;;;25.00;57.40;;;;;;4902670;29;20043;-84
2021/08/10 09:29:03;;;;;;;4.70;1.90;;;25.40;56.80;;;;;;4904616;29;20096;-85
2021/08/10 09:35:06;;;;;;;5.65;2.13;;;26.00;56.30;;;;;;4903748;29;20071;-85
2021/08/10 09:40:55;;;;;;;5.25;1.88;;;26.20;54.60;;;;;;4905156;29;20107;-89
2021/08/10 09:46:50;;;;;;;2.83;1.70;;;26.50;53.70;;;;;;4905725;29;20459;-89
2021/08/10 09:52:39;;;;;;;5.22;1.55;;;26.70;52.30;;;;;;4903581;29;20048;-88
2021/08/10 10:02:27;;;;;;;2.88;1.73;;;26.90;51.50;;;;;;4903499;29;20093;-85
2021/08/10 10:08:19;;;;;;;4.20;1.73;;;27.60;51.50;;;;;;4904386;29;20052;-88
2021/08/10 10:14:11;;;;;;;3.08;1.58;;;28.40;50.40;;;;;;4905353;29;20061;-89
2021/08/10 10:20:00;;;;;;;3.97;1.80;;;29.10;47.50;;;;;;4905107;29;20072;-85
2021/08/10 10:25:50;;;;;;;3.90;1.65;;;29.70;45.70;;;;;;4903082;29;20043;-85
2021/08/10 10:31:41;;;;;;;3.33;1.60;;;29.90;44.10;;;;;;4903568;29;20050;-89
2021/08/10 10:37:31;;;;;;;3.45;1.95;;;30.40;43.20;;;;;;4904666;29;20108;-85
2021/08/10 10:43:24;;;;;;;2.70;1.33;;;30.50;42.50;;;;;;4904390;29;20128;-86
2021/08/10 10:49:28;;;;;;;3.65;1.80;;;30.90;41.70;;;;;;4908407;29;20083;-91
2021/08/10 10:55:34;;;;;;;2.90;1.83;;;31.10;41.10;;;;;;4904732;29;20507;-89
2021/08/10 11:05:26;;;;;;;4.20;1.92;;;31.40;40.50;;;;;;4902873;29;20385;-89
2021/08/10 11:11:52;;;;;;;3.85;2.00;;;32.40;39.10;;;;;;4899599;29;20047;-88
2021/08/10 11:17:22;;;;;;;2.60;1.60;;;33.90;39.40;;;;;;4900355;29;19955;-89
2021/08/10 11:23:31;;;;;;;2.85;1.80;;;34.90;36.60;;;;;;4899595;29;20032;-89
2021/08/10 11:29:41;;;;;;;4.28;1.90;;;35.20;35.80;;;;;;4899609;29;20054;-87
2021/08/10 11:35:35;;;;;;;2.97;1.65;;;35.90;34.90;;;;;;4900217;29;20088;-89
2021/08/10 11:41:36;;;;;;;2.72;1.70;;;36.30;33.10;;;;;;4900320;29;20039;-90
2021/08/10 11:47:25;;;;;;;3.20;1.80;;;37.30;33.00;;;;;;4903618;29;20031;-92
2021/08/10 11:53:30;;;;;;;4.47;1.85;;;38.30;31.80;;;;;;4903617;29;20043;-94
2021/08/10 11:59:24;;;;;;;3.42;1.88;;;39.20;30.20;;;;;;4899939;29;20036;-89
2021/08/10 12:05:14;;;;;;;2.70;1.75;;;39.90;31.20;;;;;;4880624;29;20040;-86
2021/08/10 12:11:03;;;;;;;3.75;1.75;;;41.00;28.70;;;;;;4888286;29;20057;-86
2021/08/10 12:17:00;;;;;;;1.73;1.58;;;41.60;28.70;;;;;;4880259;29;20048;-86
2021/08/10 12:23:00;;;;;;;2.72;1.80;;;41.60;27.10;;;;;;4880596;29;20492;-87
2021/08/10 12:28:53;;;;;;;3.38;1.90;;;39.20;27.40;;;;;;4879786;29;20116;-86
2021/08/10 12:34:42;;;;;;;3.55;1.90;;;40.20;29.00;;;;;;4880785;29;20441;-89
2021/08/10 12:40:31;;;;;;;2.92;1.85;;;40.90;27.50;;;;;;4881208;29;20067;-86
2021/08/10 12:46:33;;;;;;;2.22;1.73;;;40.70;26.90;;;;;;4882648;29;20085;-89
2021/08/10 12:52:22;;;;;;;3.80;1.80;;;39.80;26.10;;;;;;4884865;29;20036;-93
2021/08/10 12:58:11;;;;;;;3.28;1.90;;;39.50;27.30;;;;;;4888914;29;20085;-92
2021/08/10 13:08:05;;;;;;;3.50;2.05;;;39.80;27.50;;;;;;4904156;29;20159;-90
2021/08/10 13:14:10;;;;;;;5.45;1.90;;;42.10;25.60;;;;;;4903517;29;20028;-91
2021/08/10 13:20:08;;;;;;;4.78;2.30;;;40.30;27.00;;;;;;4903153;29;20031;-93
2021/08/10 13:26:04;;;;;;;5.95;2.22;;;42.80;25.60;;;;;;4902861;29;20067;-90
2021/08/10 13:31:55;;;;;;;4.55;2.10;;;41.30;26.40;;;;;;4926012;29;20023;-83
2021/08/10 13:37:43;;;;;;;3.47;2.07;;;45.30;28.10;;;;;;4890998;29;20071;-91
2021/08/10 13:43:32;;;;;;;4.25;2.10;;;45.80;24.50;;;;;;4887063;29;20052;-93
2021/08/10 13:49:20;;;;;;;3.33;2.17;;;43.10;24.40;;;;;;4883853;29;20134;-93
2021/08/10 13:55:10;;;;;;;4.38;2.40;;;45.00;27.40;;;;;;4884537;29;20040;-94
2021/08/10 14:01:00;;;;;;;5.25;2.80;;;48.20;24.60;;;;;;4884083;29;20104;-93
2021/08/10 14:10:49;;;;;;;3.80;2.28;;;49.10;24.40;;;;;;4893064;29;20051;-92
2021/08/10 14:16:38;;;;;;;4.45;2.53;;;48.30;23.30;;;;;;4893909;29;20039;-90
2021/08/10 14:22:27;;;;;;;3.40;2.20;;;49.00;24.30;;;;;;4881930;29;20077;-86
2021/08/10 14:28:15;;;;;;;4.07;2.03;;;49.30;23.60;;;;;;4881943;29;20482;-85
2021/08/10 14:34:04;;;;;;;4.93;2.50;;;47.90;23.10;;;;;;4881515;29;20092;-86
2021/08/10 14:39:52;;;;;;;3.85;2.20;;;47.40;23.40;;;;;;4882334;29;20056;-87
2021/08/10 14:45:41;;;;;;;4.97;2.22;;;45.90;23.60;;;;;;4882478;29;20036;-90
2021/08/10 14:51:30;;;;;;;3.58;2.00;;;44.00;23.90;;;;;;4884419;29;20023;-91
2021/08/10 14:57:20;;;;;;;5.30;2.30;;;42.70;24.00;;;;;;4892421;29;20554;-89
2021/08/10 15:03:08;;;;;;;4.78;2.20;;;40.90;24.50;;;;;;4881728;29;20036;-90
2021/08/10 15:13:16;;;;;;;5.00;2.40;;;40.90;26.10;;;;;;4881093;29;20101;-86
2021/08/10 15:19:05;;;;;;;4.97;2.60;;;41.00;26.10;;;;;;4881169;29;20417;-88
2021/08/10 15:24:54;;;;;;;4.20;2.33;;;43.90;25.90;;;;;;4881097;29;20124;-89
2021/08/10 15:30:44;;;;;;;3.90;2.15;;;42.80;24.70;;;;;;4879428;29;20040;-85
2021/08/10 15:36:32;;;;;;;4.50;2.30;;;41.60;25.20;;;;;;4879642;29;20028;-84
2021/08/10 15:42:21;;;;;;;4.38;2.13;;;40.80;25.80;;;;;;4880585;29;20477;-85
2021/08/10 15:48:11;;;;;;;4.13;2.00;;;39.70;25.50;;;;;;4883152;29;20112;-84
2021/08/10 15:53:59;;;;;;;5.65;2.50;;;38.40;26.50;;;;;;4883246;29;20045;-84
2021/08/10 15:59:48;;;;;;;5.13;2.40;;;38.80;28.30;;;;;;4884843;29;20117;-85
2021/08/10 16:05:38;;;;;;;3.83;2.10;;;41.30;27.00;;;;;;4882657;29;20044;-84
2021/08/10 16:15:27;;;;;;;3.58;2.20;;;38.90;26.60;;;;;;4883191;29;20236;-87
2021/08/10 16:21:16;;;;;;;6.93;3.83;;;37.50;26.60;;;;;;4886547;29;20040;-88
2021/08/10 16:27:04;;;;;;;5.13;2.25;;;36.60;27.60;;;;;;4889087;29;20043;-89
2021/08/10 16:32:53;;;;;;;6.38;2.60;;;35.70;27.90;;;;;;4892545;29;20032;-86
2021/08/10 16:38:42;;;;;;;3.00;2.00;;;37.90;30.00;;;;;;4887184;29;20076;-87
2021/08/10 16:44:32;;;;;;;4.38;2.35;;;37.60;26.90;;;;;;4888448;29;20104;-88
2021/08/10 16:50:20;;;;;;;4.93;2.38;;;35.90;28.20;;;;;;4883296;29;20501;-81
2021/08/10 16:56:08;;;;;;;5.03;2.22;;;35.50;29.10;;;;;;4884651;29;20036;-90
2021/08/10 17:01:56;;;;;;;5.03;2.10;;;35.00;28.90;;;;;;4883672;29;20383;-82
2021/08/10 17:07:44;;;;;;;6.68;2.97;;;34.30;28.90;;;;;;4884638;29;20032;-84
2021/08/10 17:17:21;;;;;;;4.70;2.17;;;34.40;31.00;;;;;;4883931;29;20044;-84
2021/08/10 17:23:16;;;;;;;9.32;6.63;;;35.60;29.50;;;;;;4885327;29;20032;-83
2021/08/10 17:29:06;;;;;;;5.55;2.40;;;35.60;29.40;;;;;;4883581;29;20036;-84
2021/08/10 17:34:55;;;;;;;6.18;2.60;;;35.20;29.20;;;;;;4882707;29;20037;-85
2021/08/10 17:40:46;;;;;;;12.40;8.48;;;33.90;29.20;;;;;;4882245;29;20124;-85
2021/08/10 17:46:37;;;;;;;5.00;2.38;;;32.40;29.90;;;;;;4882241;29;20421;-81
2021/08/10 17:52:25;;;;;;;7.30;2.70;;;31.20;30.60;;;;;;4882868;29;20040;-88
2021/08/10 17:58:15;;;;;;;5.88;2.70;;;30.20;31.70;;;;;;4882048;29;20089;-84
2021/08/10 18:04:07;;;;;;;5.90;2.60;;;29.40;32.50;;;;;;4882041;29;20036;-85
2021/08/10 18:09:55;;;;;;;4.82;2.38;;;28.70;33.10;;;;;;4881931;29;20039;-84
2021/08/10 18:19:39;;;;;;;8.20;3.10;;;28.00;34.10;;;;;;4881611;29;20080;-83
2021/08/10 18:25:30;;;;;;;6.97;2.55;;;27.50;34.70;;;;;;4881487;29;20039;-84
2021/08/10 18:31:19;;;;;;;7.32;3.00;;;27.10;35.30;;;;;;4881589;29;20505;-85
2021/08/10 18:37:08;;;;;;;6.38;2.78;;;26.70;35.80;;;;;;4889948;29;20036;-86
2021/08/10 18:43:01;;;;;;;6.65;2.90;;;26.30;36.40;;;;;;4887858;29;20036;-88
2021/08/10 18:48:50;;;;;;;6.25;2.90;;;25.90;36.90;;;;;;4891013;29;20036;-88
2021/08/10 18:54:39;;;;;;;7.65;3.00;;;25.50;37.40;;;;;;4889587;29;20024;-86
2021/08/10 19:00:27;;;;;;;7.00;3.00;;;25.20;38.10;;;;;;4891382;29;20075;-88
2021/08/10 19:06:16;;;;;;;6.82;3.15;;;24.90;38.70;;;;;;4890320;29;20039;-85
2021/08/10 19:12:07;;;;;;;8.23;3.10;;;24.70;39.20;;;;;;4893886;29;20118;-85
2021/08/10 19:22:01;;;;;;;6.18;2.83;;;24.20;40.00;;;;;;4886584;29;20081;-85
2021/08/10 19:28:09;;;;;;;7.80;3.28;;;23.90;40.60;;;;;;4885414;29;20084;-86
2021/08/10 19:34:21;;;;;;;7.70;3.47;;;23.70;41.20;;;;;;4884555;29;20415;-84
2021/08/10 19:40:11;;;;;;;6.60;3.08;;;23.40;41.90;;;;;;4889096;29;20063;-89
2021/08/10 19:46:04;;;;;;;7.47;3.53;;;23.20;42.40;;;;;;4891651;29;20490;-90
2021/08/10 19:51:54;;;;;;;7.00;3.53;;;22.90;42.80;;;;;;4894071;29;20041;-88
2021/08/10 19:57:43;;;;;;;7.10;3.17;;;22.70;43.50;;;;;;4891273;29;20108;-91
2021/08/10 20:03:32;;;;;;;7.88;3.40;;;22.50;44.10;;;;;;4898204;29;20062;-91
2021/08/10 20:09:21;;;;;;;7.32;3.55;;;22.40;44.70;;;;;;4885757;29;20084;-85
2021/08/10 20:15:12;;;;;;;8.40;3.05;;;22.20;45.10;;;;;;4885499;29;20079;-89
2021/08/10 20:25:06;;;;;;;8.95;3.40;;;21.90;45.90;;;;;;4885136;29;20139;-89
2021/08/10 20:30:56;;;;;;;9.27;3.53;;;21.80;46.40;;;;;;4881727;29;20389;-90
2021/08/10 20:36:45;;;;;;;9.48;3.67;;;21.70;46.90;;;;;;4881015;29;20035;-89
2021/08/10 20:42:34;;;;;;;7.68;3.30;;;21.50;47.30;;;;;;4881069;29;20069;-90
2021/08/10 20:48:22;;;;;;;8.35;3.90;;;21.40;48.20;;;;;;4880943;29;20434;-90
2021/08/10 20:54:11;;;;;;;9.10;3.75;;;21.30;48.70;;;;;;4880463;29;20106;-89
2021/08/10 21:00:00;;;;;;;7.80;3.42;;;21.30;48.90;;;;;;4879914;29;20052;-90
2021/08/10 21:05:48;;;;;;;9.32;3.80;;;21.20;49.30;;;;;;4880756;29;20081;-89
2021/08/10 21:11:37;;;;;;;8.88;3.80;;;21.00;49.60;;;;;;4879900;29;20037;-90
2021/08/10 21:17:26;;;;;;;8.20;4.07;;;20.90;49.80;;;;;;4883648;29;20032;-91
2021/08/10 21:27:08;;;;;;;9.75;3.60;;;20.60;50.60;;;;;;4883658;29;20067;-91
2021/08/10 21:32:57;;;;;;;8.75;4.10;;;20.50;51.10;;;;;;4883605;29;20040;-90
2021/08/10 21:38:45;;;;;;;8.50;3.67;;;20.30;51.30;;;;;;4883111;29;20112;-90
2021/08/10 21:44:37;;;;;;;10.80;3.83;;;20.20;51.80;;;;;;4883163;29;20098;-90
2021/08/10 21:50:25;;;;;;;8.93;3.95;;;20.10;52.10;;;;;;4883504;29;20598;-90
2021/08/10 21:56:14;;;;;;;8.00;3.90;;;19.90;53.10;;;;;;4883111;29;20533;-91
2021/08/10 22:02:04;;;;;;;8.90;3.60;;;19.70;53.00;;;;;;4882834;29;20097;-90
2021/08/10 22:07:52;;;;;;;8.45;3.70;;;19.70;53.60;;;;;;4882844;29;20093;-90
2021/08/10 22:13:42;;;;;;;8.15;3.92;;;19.60;53.90;;;;;;4882793;29;20136;-90
2021/08/10 22:19:34;;;;;;;8.27;3.58;;;19.50;53.90;;;;;;4882580;29;20093;-90
2021/08/10 22:29:17;;;;;;;8.60;3.80;;;19.40;54.90;;;;;;4882488;29;20454;-90
2021/08/10 22:35:07;;;;;;;7.97;3.33;;;19.30;55.20;;;;;;4882470;29;20064;-89
2021/08/10 22:40:56;;;;;;;7.90;3.65;;;19.20;55.40;;;;;;4882104;29;20060;-91
2021/08/10 22:46:47;;;;;;;7.90;3.85;;;19.10;55.50;;;;;;4882022;29;20036;-90
2021/08/10 22:52:36;;;;;;;7.28;3.70;;;19.00;55.80;;;;;;4882323;29;20077;-90
2021/08/10 22:58:24;;;;;;;7.10;3.42;;;18.80;56.10;;;;;;4882073;29;20118;-91
2021/08/10 23:04:16;;;;;;;9.35;4.10;;;18.70;56.40;;;;;;4881823;29;20097;-89
2021/08/10 23:10:06;;;;;;;7.85;3.72;;;18.60;57.30;;;;;;4881811;29;20574;-90
2021/08/10 23:15:55;;;;;;;9.32;3.80;;;18.70;58.30;;;;;;4881330;29;20032;-90
2021/08/10 23:21:45;;;;;;;9.55;3.60;;;18.90;58.60;;;;;;4891295;29;20040;-89
2021/08/10 23:31:27;;;;;;;7.57;3.70;;;19.00;58.70;;;;;;4883021;29;20129;-90
2021/08/10 23:37:16;;;;;;;8.20;3.85;;;19.00;58.70;;;;;;4891469;29;20044;-89
2021/08/10 23:43:05;;;;;;;8.18;3.63;;;19.00;58.80;;;;;;4887421;29;20044;-91
2021/08/10 23:48:54;;;;;;;7.80;3.65;;;18.80;58.40;;;;;;4881912;29;20104;-91
2021/08/10 23:54:44;;;;;;;8.93;3.90;;;18.60;58.70;;;;;;4881683;29;20076;-90
